createdAt,value
2022-11-16T00:00:24.643Z,10.00
2022-11-16T00:02:54.590Z,9.98
2022-11-16T00:05:27.994Z,9.95
2022-11-16T00:07:56.689Z,9.85
2022-11-16T00:10:25.236Z,9.78
2022-11-16T00:12:53.863Z,9.78
2022-11-16T00:15:22.355Z,9.66
2022-11-16T00:17:50.770Z,9.65
2022-11-16T00:20:20.572Z,9.65
2022-11-16T00:22:48.992Z,9.67
2022-11-16T00:25:17.387Z,9.61
2022-11-16T00:27:45.857Z,9.60
2022-11-16T00:30:15.041Z,9.62
2022-11-16T00:32:43.684Z,9.61
2022-11-16T00:35:12.107Z,9.55
2022-11-16T00:37:41.896Z,9.56
2022-11-16T00:40:11.825Z,9.55
2022-11-16T00:42:40.083Z,9.54
2022-11-16T00:45:09.872Z,9.47
2022-11-16T00:47:38.663Z,9.48
2022-11-16T00:50:07.634Z,9.44
2022-11-16T00:52:36.348Z,9.43
2022-11-16T00:55:07.306Z,9.48
2022-11-16T00:57:36.176Z,9.49
2022-11-16T01:00:05.840Z,9.42
2022-11-16T01:02:36.027Z,9.43
2022-11-16T01:05:04.602Z,9.47
2022-11-16T01:07:33.156Z,9.51
2022-11-16T01:10:01.648Z,9.50
2022-11-16T01:12:30.499Z,9.50
2022-11-16T01:15:01.001Z,9.48
2022-11-16T01:17:30.266Z,9.50
2022-11-16T01:19:58.860Z,9.45
2022-11-16T01:22:27.408Z,9.47
2022-11-16T01:24:55.935Z,9.47
2022-11-16T01:27:24.438Z,9.42
2022-11-16T01:29:54.923Z,9.41
2022-11-16T01:32:23.609Z,9.43
2022-11-16T01:34:52.233Z,9.44
2022-11-16T01:37:28.400Z,9.44
2022-11-16T01:39:56.953Z,9.38
2022-11-16T01:42:28.342Z,9.35
2022-11-16T01:45:06.167Z,9.34
2022-11-16T01:47:35.045Z,9.29
2022-11-16T01:50:10.060Z,9.30
2022-11-16T01:52:43.955Z,9.30
2022-11-16T01:55:13.981Z,9.24
2022-11-16T01:57:51.206Z,9.20
2022-11-16T02:00:21.256Z,9.13
2022-11-16T02:03:02.913Z,9.11
2022-11-16T02:06:00.438Z,9.10
2022-11-16T02:09:05.025Z,9.04
2022-11-16T02:12:07.129Z,8.96
2022-11-16T02:14:48.705Z,8.93
2022-11-16T02:17:24.771Z,8.96
2022-11-16T02:20:25.978Z,8.88
2022-11-16T02:23:14.534Z,8.79
2022-11-16T02:25:54.901Z,8.86
2022-11-16T02:28:36.239Z,8.80
2022-11-16T02:31:09.008Z,8.84
2022-11-16T02:33:42.400Z,8.83
2022-11-16T02:36:15.942Z,8.87
2022-11-16T02:38:51.104Z,8.83
2022-11-16T02:41:23.724Z,8.85
2022-11-16T02:43:58.177Z,8.81
2022-11-16T02:46:31.933Z,8.82
2022-11-16T02:49:04.108Z,8.82
2022-11-16T02:51:36.064Z,8.84
2022-11-16T02:54:11.504Z,8.83
2022-11-16T02:56:50.919Z,8.87
2022-11-16T02:59:25.288Z,8.86
2022-11-16T03:02:02.840Z,8.84
2022-11-16T03:04:37.713Z,8.83
2022-11-16T03:07:09.907Z,8.85
2022-11-16T03:09:41.572Z,8.82
2022-11-16T03:12:14.173Z,8.85
2022-11-16T03:14:46.584Z,8.84
2022-11-16T03:17:22.604Z,8.85
2022-11-16T03:19:58.199Z,8.85
2022-11-16T03:22:32.473Z,8.82
2022-11-16T03:25:01.060Z,8.76
2022-11-16T03:27:38.131Z,8.71
2022-11-16T03:30:11.578Z,8.73
2022-11-16T03:32:52.421Z,8.71
2022-11-16T03:35:28.084Z,8.72
2022-11-16T03:37:59.782Z,8.68
2022-11-16T03:40:32.723Z,8.69
2022-11-16T03:43:03.928Z,8.66
2022-11-16T03:45:33.894Z,8.67
2022-11-16T03:48:03.776Z,8.68
2022-11-16T03:50:32.365Z,8.68
2022-11-16T03:53:02.502Z,8.70
2022-11-16T03:55:31.129Z,8.67
2022-11-16T03:58:00.396Z,8.73
2022-11-16T04:00:29.196Z,8.74
2022-11-16T04:02:57.858Z,8.81
2022-11-16T04:05:45.145Z,8.79
2022-11-16T04:08:33.995Z,8.78
2022-11-16T04:11:20.498Z,8.80
2022-11-16T04:14:09.564Z,8.80
2022-11-16T04:16:58.363Z,8.79
2022-11-16T04:19:44.579Z,8.87
2022-11-16T04:22:36.004Z,8.80
2022-11-16T04:25:12.057Z,8.77
2022-11-16T04:27:58.067Z,8.81
2022-11-16T04:30:46.749Z,8.77
2022-11-16T04:33:32.818Z,8.82
2022-11-16T04:36:20.863Z,8.83
2022-11-16T04:38:51.121Z,8.89
2022-11-16T04:41:37.590Z,8.89
2022-11-16T04:44:06.283Z,8.86
2022-11-16T04:47:05.077Z,8.90
2022-11-16T04:49:34.482Z,8.87
2022-11-16T04:52:03.056Z,8.81
2022-11-16T04:54:34.137Z,8.82
2022-11-16T04:57:03.389Z,8.86
2022-11-16T04:59:31.933Z,8.85
2022-11-16T05:02:09.273Z,8.82
2022-11-16T05:04:56.329Z,8.89
2022-11-16T05:07:26.167Z,8.93
2022-11-16T05:10:03.703Z,8.94
2022-11-16T05:12:32.601Z,8.92
2022-11-16T05:15:03.705Z,8.97
2022-11-16T05:17:34.695Z,8.96
2022-11-16T05:20:34.079Z,8.91
2022-11-16T05:23:05.616Z,8.94
2022-11-16T05:25:39.453Z,8.95
2022-11-16T05:28:12.180Z,8.95
2022-11-16T05:30:46.448Z,8.97
2022-11-16T05:33:19.200Z,9.01
2022-11-16T05:35:50.583Z,9.03
2022-11-16T05:38:19.855Z,9.01
2022-11-16T05:40:53.806Z,9.04
2022-11-16T05:43:22.726Z,9.08
2022-11-16T05:46:11.361Z,9.10
2022-11-16T05:48:40.643Z,9.09
2022-11-16T05:51:09.203Z,9.02
2022-11-16T05:53:37.653Z,9.01
2022-11-16T05:56:08.961Z,9.04
2022-11-16T05:58:40.998Z,9.07
2022-11-16T06:01:09.745Z,9.05
2022-11-16T06:03:38.734Z,9.06
2022-11-16T06:06:07.828Z,9.09
2022-11-16T06:08:37.768Z,9.16
2022-11-16T06:11:11.630Z,9.10
2022-11-16T06:13:41.139Z,9.09
2022-11-16T06:16:10.035Z,9.06
2022-11-16T06:18:39.802Z,9.09
2022-11-16T06:21:09.637Z,9.05
2022-11-16T06:23:38.557Z,9.06
2022-11-16T06:26:08.543Z,9.09
2022-11-16T06:28:39.072Z,9.11
2022-11-16T06:31:07.549Z,9.14
2022-11-16T06:33:39.883Z,9.13
2022-11-16T06:36:15.054Z,9.17
2022-11-16T06:38:44.189Z,9.13
2022-11-16T06:41:13.755Z,9.14
2022-11-16T06:43:47.906Z,9.17
2022-11-16T06:46:19.032Z,9.18
2022-11-16T06:48:49.420Z,9.20
2022-11-16T06:51:19.028Z,9.23
2022-11-16T06:53:48.237Z,9.22
2022-11-16T06:56:17.304Z,9.20
2022-11-16T06:58:53.603Z,9.23
2022-11-16T07:01:23.360Z,9.16
2022-11-16T07:03:57.596Z,9.15
2022-11-16T07:06:26.137Z,9.16
2022-11-16T07:08:54.862Z,9.23
2022-11-16T07:11:27.406Z,9.23
2022-11-16T07:13:57.241Z,9.22
2022-11-16T07:16:26.034Z,9.26
2022-11-16T07:18:59.242Z,9.23
2022-11-16T07:21:30.433Z,9.23
2022-11-16T07:24:00.842Z,9.26
2022-11-16T07:26:31.076Z,9.27
2022-11-16T07:29:05.831Z,9.29
2022-11-16T07:31:36.132Z,9.27
2022-11-16T07:34:30.730Z,9.28
2022-11-16T07:37:08.783Z,9.29
2022-11-16T07:39:37.271Z,9.31
2022-11-16T07:42:11.791Z,9.28
2022-11-16T07:44:52.715Z,9.32
2022-11-16T07:47:20.995Z,9.36
2022-11-16T07:49:49.584Z,9.30
2022-11-16T07:52:21.144Z,9.36
2022-11-16T07:55:01.576Z,9.34
2022-11-16T07:57:32.423Z,9.38
2022-11-16T08:00:08.299Z,9.38
2022-11-16T08:02:45.252Z,9.38
2022-11-16T08:05:19.608Z,9.41
2022-11-16T08:07:50.250Z,9.44
2022-11-16T08:10:20.984Z,9.45
2022-11-16T08:12:49.764Z,9.50
2022-11-16T08:15:21.031Z,9.57
2022-11-16T08:17:49.415Z,9.57
2022-11-16T08:20:18.851Z,9.63
2022-11-16T08:22:49.601Z,9.73
2022-11-16T08:25:18.363Z,9.74
2022-11-16T08:27:47.688Z,9.77
2022-11-16T08:30:17.454Z,9.82
2022-11-16T08:32:48.363Z,9.85
2022-11-16T08:35:17.757Z,9.84
2022-11-16T08:37:47.279Z,9.89
2022-11-16T08:40:16.941Z,9.97
2022-11-16T08:42:45.592Z,10.09
2022-11-16T08:45:15.289Z,10.16
2022-11-16T08:47:43.994Z,10.17
2022-11-16T08:50:13.844Z,10.20
2022-11-16T08:52:42.178Z,10.31
2022-11-16T08:55:13.891Z,10.54
2022-11-16T08:57:42.740Z,10.47
2022-11-16T09:00:14.141Z,10.48
2022-11-16T09:02:42.939Z,10.59
2022-11-16T09:05:13.018Z,10.62
2022-11-16T09:07:44.076Z,10.68
2022-11-16T09:10:13.054Z,10.71
2022-11-16T09:12:41.617Z,10.79
2022-11-16T09:15:10.792Z,10.76
2022-11-16T09:17:39.237Z,10.80
2022-11-16T09:20:08.985Z,10.81
2022-11-16T09:22:38.697Z,10.78
2022-11-16T09:25:09.357Z,10.92
2022-11-16T09:27:38.531Z,11.08
2022-11-16T09:30:08.965Z,11.01
2022-11-16T09:32:37.426Z,11.12
2022-11-16T09:35:06.550Z,11.12
2022-11-16T09:37:34.979Z,11.18
2022-11-16T09:40:05.269Z,11.18
2022-11-16T09:42:47.082Z,11.09
2022-11-16T09:45:23.062Z,10.98
2022-11-16T09:47:53.924Z,10.89
2022-11-16T09:50:42.381Z,10.95
2022-11-16T09:53:21.666Z,10.89
2022-11-16T09:55:53.705Z,10.94
2022-11-16T09:58:27.894Z,10.93
2022-11-16T10:01:01.150Z,11.00
2022-11-16T10:03:33.338Z,11.10
2022-11-16T10:06:06.270Z,11.16
2022-11-16T10:08:44.167Z,11.57
2022-11-16T10:11:34.393Z,11.78
2022-11-16T10:14:15.089Z,12.42
2022-11-16T10:16:50.754Z,12.71
2022-11-16T10:19:31.723Z,12.92
2022-11-16T10:22:05.867Z,13.03
2022-11-16T10:24:50.885Z,12.77
2022-11-16T10:27:41.525Z,12.49
2022-11-16T10:30:13.963Z,12.45
2022-11-16T10:32:50.677Z,12.45
2022-11-16T10:35:25.210Z,12.39
2022-11-16T10:37:53.975Z,12.34
2022-11-16T10:40:25.971Z,12.13
2022-11-16T10:43:14.159Z,12.04
2022-11-16T10:45:48.365Z,12.06
2022-11-16T10:48:27.648Z,12.13
2022-11-16T10:50:56.388Z,12.40
2022-11-16T10:53:29.891Z,12.89
2022-11-16T10:56:12.328Z,12.84
2022-11-16T10:58:53.904Z,12.68
2022-11-16T11:01:34.513Z,12.43
2022-11-16T11:04:22.090Z,12.55
2022-11-16T11:06:53.012Z,12.56
2022-11-16T11:09:25.272Z,12.41
2022-11-16T11:12:27.969Z,12.42
2022-11-16T11:15:03.128Z,12.06
2022-11-16T11:17:34.067Z,12.11
2022-11-16T11:20:05.525Z,12.06
2022-11-16T11:22:42.694Z,12.12
2022-11-16T11:25:21.033Z,11.85
2022-11-16T11:27:50.606Z,11.81
2022-11-16T11:30:23.921Z,11.94
2022-11-16T11:32:53.387Z,11.96
2022-11-16T11:35:27.435Z,12.08
2022-11-16T11:38:02.176Z,12.28
2022-11-16T11:40:33.409Z,12.31
2022-11-16T11:43:03.744Z,12.20
2022-11-16T11:45:39.819Z,12.49
2022-11-16T11:48:23.443Z,12.56
2022-11-16T11:50:55.338Z,12.57
2022-11-16T11:53:40.279Z,12.60
2022-11-16T11:56:12.458Z,12.67
2022-11-16T11:58:43.054Z,12.74
2022-11-16T12:01:41.748Z,12.77
2022-11-16T12:04:39.685Z,12.85
2022-11-16T12:07:20.369Z,13.01
2022-11-16T12:09:53.494Z,13.24
2022-11-16T12:12:36.105Z,13.08
2022-11-16T12:15:27.402Z,13.15
2022-11-16T12:18:07.906Z,12.83
2022-11-16T12:20:48.232Z,12.98
2022-11-16T12:23:36.814Z,12.84
2022-11-16T12:26:13.054Z,12.72
2022-11-16T12:28:50.840Z,12.77
2022-11-16T12:31:47.159Z,12.83
2022-11-16T12:34:27.511Z,12.85
2022-11-16T12:37:04.130Z,12.83
2022-11-16T12:39:36.284Z,12.84
2022-11-16T12:42:32.970Z,12.83
2022-11-16T12:45:27.628Z,12.87
2022-11-16T12:48:13.967Z,12.80
2022-11-16T12:50:55.034Z,12.71
2022-11-16T12:53:39.593Z,12.55
2022-11-16T12:56:19.992Z,12.55
2022-11-16T12:59:05.635Z,12.40
2022-11-16T13:01:37.760Z,12.35
2022-11-16T13:04:11.539Z,12.43
2022-11-16T13:06:50.378Z,12.50
2022-11-16T13:09:22.510Z,12.41
2022-11-16T13:11:54.149Z,12.39
2022-11-16T13:14:27.369Z,12.51
2022-11-16T13:16:58.479Z,12.50
2022-11-16T13:19:27.508Z,12.57
2022-11-16T13:22:03.489Z,12.54
2022-11-16T13:24:44.736Z,12.48
2022-11-16T13:27:22.749Z,12.47
2022-11-16T13:29:56.947Z,12.41
2022-11-16T13:32:29.246Z,12.43
2022-11-16T13:34:59.053Z,12.39
2022-11-16T13:37:44.987Z,12.30
2022-11-16T13:40:23.926Z,12.18
2022-11-16T13:43:15.387Z,12.12
2022-11-16T13:45:52.031Z,12.10
2022-11-16T13:48:23.953Z,12.11
2022-11-16T13:50:55.368Z,12.05
2022-11-16T13:56:20.904Z,12.06
2022-11-16T13:58:55.194Z,12.09
2022-11-16T14:01:24.469Z,12.19
2022-11-16T14:04:13.658Z,12.26
2022-11-16T14:06:59.603Z,12.23
2022-11-16T14:09:49.179Z,12.26
2022-11-16T14:12:58.094Z,12.25
2022-11-16T14:15:32.141Z,12.33
2022-11-16T14:18:35.226Z,12.39
2022-11-16T14:21:13.744Z,12.41
2022-11-16T14:24:14.633Z,12.43
2022-11-16T14:26:52.006Z,12.43
2022-11-16T14:29:46.684Z,12.28
2022-11-16T14:32:22.460Z,12.32
2022-11-16T14:34:54.185Z,12.16
2022-11-16T14:37:32.338Z,12.17
2022-11-16T14:40:06.646Z,12.12
2022-11-16T14:43:09.419Z,12.04
2022-11-16T14:45:38.123Z,12.06
2022-11-16T14:48:14.826Z,11.96
2022-11-16T14:50:46.245Z,11.89
2022-11-16T14:53:18.967Z,11.83
2022-11-16T14:55:47.525Z,11.73
2022-11-16T14:58:21.034Z,11.70
2022-11-16T15:00:54.877Z,11.57
2022-11-16T15:03:24.702Z,11.50
2022-11-16T15:05:57.594Z,11.31
2022-11-16T15:08:32.011Z,11.28
2022-11-16T15:11:00.860Z,11.22
2022-11-16T15:13:29.545Z,11.17
2022-11-16T15:16:12.006Z,11.09
2022-11-16T15:18:40.496Z,11.01
2022-11-16T15:21:23.204Z,10.86
2022-11-16T15:24:15.562Z,10.73
2022-11-16T15:26:40.488Z,10.60
2022-11-16T15:29:16.484Z,10.50
2022-11-16T15:31:44.785Z,10.39
2022-11-16T15:34:15.170Z,10.28
2022-11-16T15:36:45.290Z,10.21
2022-11-16T15:39:17.761Z,9.95
2022-11-16T15:41:47.037Z,9.86
2022-11-16T15:44:18.243Z,9.71
2022-11-16T15:46:50.076Z,9.58
2022-11-16T15:49:30.093Z,9.46
2022-11-16T15:52:00.698Z,9.35
2022-11-16T15:54:30.887Z,9.30
2022-11-16T15:57:08.644Z,9.27
2022-11-16T15:59:38.303Z,9.23
2022-11-16T16:02:14.987Z,9.13
2022-11-16T16:04:43.953Z,9.11
2022-11-16T16:07:36.766Z,9.08
2022-11-16T16:10:25.669Z,8.97
2022-11-16T16:12:55.830Z,8.95
2022-11-16T16:15:26.220Z,8.92
2022-11-16T16:17:55.449Z,8.84
2022-11-16T16:20:26.334Z,8.88
2022-11-16T16:23:07.453Z,9.11
2022-11-16T16:25:37.156Z,9.12
2022-11-16T16:28:06.154Z,9.09
2022-11-16T16:30:35.759Z,9.07
2022-11-16T16:33:04.836Z,9.03
2022-11-16T16:35:33.524Z,9.01
2022-11-16T16:38:03.510Z,8.93
2022-11-16T16:40:31.904Z,8.86
2022-11-16T16:43:00.439Z,8.85
2022-11-16T16:45:37.027Z,8.68
2022-11-16T16:48:06.013Z,8.57
2022-11-16T16:50:34.683Z,8.56
2022-11-16T16:53:04.915Z,8.40
2022-11-16T16:55:37.188Z,8.37
2022-11-16T16:58:06.493Z,8.27
2022-11-16T17:00:35.186Z,8.17
2022-11-16T17:03:04.304Z,8.13
2022-11-16T17:05:33.976Z,7.99
2022-11-16T17:08:04.165Z,7.98
2022-11-16T17:10:33.020Z,8.00
2022-11-16T17:13:03.169Z,7.90
2022-11-16T17:15:31.836Z,7.86
2022-11-16T17:18:00.915Z,7.78
2022-11-16T17:20:29.433Z,7.70
2022-11-16T17:22:58.014Z,7.67
2022-11-16T17:25:27.928Z,7.72
2022-11-16T17:27:56.208Z,7.66
2022-11-16T17:30:24.770Z,7.55
2022-11-16T17:32:53.377Z,7.48
2022-11-16T17:35:21.854Z,7.45
2022-11-16T17:37:50.484Z,7.40
2022-11-16T17:40:19.190Z,7.37
2022-11-16T17:42:49.047Z,7.35
2022-11-16T17:45:17.671Z,7.29
2022-11-16T17:47:46.215Z,7.27
2022-11-16T17:50:14.931Z,7.19
2022-11-16T17:52:43.433Z,7.20
2022-11-16T17:55:11.974Z,7.24
2022-11-16T17:57:40.489Z,7.20
2022-11-16T18:00:11.970Z,7.06
2022-11-16T18:02:40.475Z,7.05
2022-11-16T18:05:09.838Z,6.95
2022-11-16T18:07:40.211Z,6.83
2022-11-16T18:10:11.102Z,6.77
2022-11-16T18:12:42.221Z,6.69
2022-11-16T18:15:28.168Z,6.68
2022-11-16T18:17:57.491Z,6.63
2022-11-16T18:20:27.598Z,6.56
2022-11-16T18:22:56.995Z,6.60
2022-11-16T18:25:25.743Z,6.61
2022-11-16T18:27:54.674Z,6.54
2022-11-16T18:30:25.129Z,6.51
2022-11-16T18:32:53.596Z,6.54
2022-11-16T18:35:22.052Z,6.48
2022-11-16T18:37:50.841Z,6.44
2022-11-16T18:40:19.542Z,6.45
2022-11-16T18:42:48.186Z,6.52
2022-11-16T18:45:16.888Z,6.51
2022-11-16T18:47:46.999Z,6.53
2022-11-16T18:50:21.325Z,6.52
2022-11-16T18:52:52.593Z,6.53
2022-11-16T18:55:21.108Z,6.47
2022-11-16T18:57:49.650Z,6.46
2022-11-16T19:00:20.221Z,6.44
2022-11-16T19:02:50.392Z,6.41
2022-11-16T19:05:18.765Z,6.41
2022-11-16T19:07:47.266Z,6.38
2022-11-16T19:10:15.942Z,6.37
2022-11-16T19:12:44.367Z,6.39
2022-11-16T19:15:12.928Z,6.42
2022-11-16T19:17:59.606Z,6.41
2022-11-16T19:20:31.255Z,6.45
2022-11-16T19:22:59.924Z,6.43
2022-11-16T19:25:28.554Z,6.38
2022-11-16T19:27:57.121Z,6.34
2022-11-16T19:30:25.603Z,6.24
2022-11-16T19:32:57.251Z,6.16
2022-11-16T19:35:26.306Z,6.06
2022-11-16T19:37:56.114Z,6.05
2022-11-16T19:40:25.278Z,6.02
2022-11-16T19:42:53.991Z,6.06
2022-11-16T19:45:22.540Z,6.11
2022-11-16T19:47:51.044Z,6.12
2022-11-16T19:50:19.517Z,6.15
2022-11-16T19:52:48.028Z,6.07
2022-11-16T19:55:17.872Z,6.10
2022-11-16T19:57:46.491Z,6.04
2022-11-16T20:00:16.512Z,6.03
2022-11-16T20:02:44.928Z,6.00
2022-11-16T20:05:13.369Z,6.00
2022-11-16T20:07:42.429Z,5.97
2022-11-16T20:10:11.012Z,5.96
2022-11-16T20:12:41.083Z,5.96
2022-11-16T20:15:09.756Z,5.93
2022-11-16T20:17:38.120Z,5.96
2022-11-16T20:20:07.371Z,5.93
2022-11-16T20:22:35.811Z,5.89
2022-11-16T20:25:04.412Z,5.83
2022-11-16T20:27:32.823Z,5.81
2022-11-16T20:30:07.960Z,5.77
2022-11-16T20:32:37.849Z,5.81
2022-11-16T20:35:06.701Z,5.85
2022-11-16T20:37:35.151Z,5.90
2022-11-16T20:40:03.644Z,5.87
2022-11-16T20:42:32.107Z,5.96
2022-11-16T20:45:02.263Z,6.01
2022-11-16T20:47:30.587Z,5.95
2022-11-16T20:49:59.035Z,5.94
2022-11-16T20:52:27.543Z,5.91
2022-11-16T20:54:55.988Z,5.91
2022-11-16T20:57:24.403Z,5.93
2022-11-16T20:59:52.848Z,5.90
2022-11-16T21:02:22.640Z,5.98
2022-11-16T21:04:54.789Z,6.01
2022-11-16T21:07:26.076Z,6.07
2022-11-16T21:10:11.999Z,6.09
2022-11-16T21:13:00.488Z,5.98
2022-11-16T21:15:28.943Z,5.97
2022-11-16T21:17:58.757Z,5.93
2022-11-16T21:20:28.320Z,5.94
2022-11-16T21:22:57.364Z,5.98
2022-11-16T21:25:25.809Z,5.94
2022-11-16T21:27:55.246Z,5.98
2022-11-16T21:30:23.752Z,6.03
2022-11-16T21:32:52.193Z,6.00
2022-11-16T21:35:23.489Z,6.03
2022-11-16T21:37:51.951Z,6.07
2022-11-16T21:40:20.409Z,6.06
2022-11-16T21:42:49.973Z,6.01
2022-11-16T21:45:18.515Z,5.96
2022-11-16T21:47:47.167Z,5.93
2022-11-16T21:50:32.156Z,5.92
2022-11-16T21:53:02.550Z,5.91
2022-11-16T21:55:30.902Z,6.00
2022-11-16T21:57:59.717Z,5.96
2022-11-16T22:00:28.764Z,5.95
2022-11-16T22:02:57.216Z,5.93
2022-11-16T22:05:43.109Z,5.86
2022-11-16T22:08:13.131Z,5.83
2022-11-16T22:10:41.443Z,5.91
2022-11-16T22:13:09.844Z,5.91
2022-11-16T22:15:38.379Z,5.83
2022-11-16T22:18:07.008Z,5.84
2022-11-16T22:20:35.470Z,5.73
2022-11-16T22:23:03.902Z,5.75
2022-11-16T22:25:33.919Z,5.77
2022-11-16T22:30:52.237Z,5.78
2022-11-16T22:33:20.688Z,5.72
2022-11-16T22:35:49.123Z,5.71
2022-11-16T22:38:17.539Z,5.69
2022-11-16T22:40:51.881Z,5.68
2022-11-16T22:43:21.655Z,5.81
2022-11-16T22:45:50.208Z,5.90
2022-11-16T22:48:18.855Z,5.98
2022-11-16T22:50:47.297Z,6.00
2022-11-16T22:53:15.882Z,6.09
2022-11-16T22:55:44.908Z,6.13
2022-11-16T22:58:14.706Z,6.24
2022-11-16T23:00:43.170Z,6.26
2022-11-16T23:03:11.655Z,6.28
2022-11-16T23:05:40.189Z,6.30
2022-11-16T23:08:08.613Z,6.27
2022-11-16T23:10:57.208Z,6.39
2022-11-16T23:13:44.361Z,6.50
2022-11-16T23:16:12.782Z,6.68
2022-11-16T23:18:41.190Z,6.83
2022-11-16T23:21:27.501Z,6.93
2022-11-16T23:24:13.380Z,6.99
2022-11-16T23:26:59.399Z,7.12
2022-11-16T23:29:29.226Z,7.15
2022-11-16T23:31:57.772Z,7.17
2022-11-16T23:34:26.235Z,7.23
2022-11-16T23:36:54.621Z,7.25
2022-11-16T23:39:23.007Z,7.25
2022-11-16T23:42:08.794Z,7.26
2022-11-16T23:44:38.674Z,7.30
2022-11-16T23:47:07.143Z,7.29
2022-11-16T23:49:35.614Z,7.32
2022-11-16T23:52:04.125Z,7.32
2022-11-16T23:54:32.591Z,7.29
2022-11-16T23:57:01.492Z,7.31
2022-11-16T23:59:29.938Z,7.31
